Delta Virtual Airport Information Service

Rapid City Regional Airport

ICAO: KRAP Country: United States
Latitude: 44.0453 Longitude: -103.057
Latest Arrival : SKW3681 (1B) (KMSP-KRAP) Latest Departure : AAY139 (KRAP-KLAS)


WX CaptureLIVE
Data provided by noaa.gov | Fetched at 06:40:06

METAR : KRAP 271052Z AUTO 32025G37KT 10SM CLR 01/M05 A2978 RMK AO2 PK WND 33041/1014 SLP100 T00111050

TAF : KRAP 271052Z AUTO 32025G37KT 10SM CLR 01/M05 A2978 RMK AO2 PK WND 33041/1014 SLP100 T00111050


Runway Data for KRAP
Data provided by openaviationdata.com

Runway ID Mag Var Hdg Length Elevation Surface ILS Freq ILS Id ILS Slope
5 9 52° 3595 ft 3203 ft Asphalt -- -- --
14 9 142° 8697 ft 3203 ft Concrete -- -- --
23 9 232° 3595 ft 3203 ft Asphalt -- -- --
32 9 322° 8697 ft 3203 ft Concrete 109.3 IRAP 3

Rapid City Regional Airport, United States
Use only for reference purposes



Not for navigational purposes.